sensor_id;sensor_type;location;lat;lon;timestamp;P1;durP1;ratioP1;P2;durP2;ratioP2
83634;SDS011;73596;49.482;11.238;2024-03-02T00:00:08;9.02;;;4.57;;
83634;SDS011;73596;49.482;11.238;2024-03-02T00:02:40;16.00;;;7.93;;
83634;SDS011;73596;49.482;11.238;2024-03-02T00:05:06;15.93;;;7.15;;
83634;SDS011;73596;49.482;11.238;2024-03-02T00:07:31;10.75;;;6.18;;
83634;SDS011;73596;49.482;11.238;2024-03-02T00:09:57;12.10;;;5.13;;
83634;SDS011;73596;49.482;11.238;2024-03-02T00:12:22;11.02;;;4.97;;
83634;SDS011;73596;49.482;11.238;2024-03-02T00:14:47;11.83;;;6.20;;
83634;SDS011;73596;49.482;11.238;2024-03-02T00:17:21;11.03;;;5.83;;
83634;SDS011;73596;49.482;11.238;2024-03-02T00:19:50;12.45;;;6.43;;
83634;SDS011;73596;49.482;11.238;2024-03-02T00:22:16;16.40;;;7.07;;
83634;SDS011;73596;49.482;11.238;2024-03-02T00:24:41;11.48;;;6.25;;
83634;SDS011;73596;49.482;11.238;2024-03-02T00:27:07;9.75;;;4.50;;
83634;SDS011;73596;49.482;11.238;2024-03-02T00:29:36;10.80;;;5.18;;
83634;SDS011;73596;49.482;11.238;2024-03-02T00:32:02;12.65;;;5.60;;
83634;SDS011;73596;49.482;11.238;2024-03-02T00:34:27;9.07;;;4.82;;
83634;SDS011;73596;49.482;11.238;2024-03-02T00:36:52;11.27;;;5.55;;
83634;SDS011;73596;49.482;11.238;2024-03-02T00:39:18;10.48;;;4.63;;
83634;SDS011;73596;49.482;11.238;2024-03-02T00:41:43;13.80;;;5.97;;
83634;SDS011;73596;49.482;11.238;2024-03-02T00:44:15;13.32;;;6.70;;
83634;SDS011;73596;49.482;11.238;2024-03-02T00:46:41;13.18;;;6.65;;
83634;SDS011;73596;49.482;11.238;2024-03-02T00:49:18;12.32;;;6.07;;
83634;SDS011;73596;49.482;11.238;2024-03-02T00:51:47;14.60;;;6.38;;
83634;SDS011;73596;49.482;11.238;2024-03-02T00:54:14;11.77;;;6.60;;
83634;SDS011;73596;49.482;11.238;2024-03-02T00:56:41;13.98;;;5.55;;
83634;SDS011;73596;49.482;11.238;2024-03-02T00:59:07;13.68;;;5.72;;
83634;SDS011;73596;49.482;11.238;2024-03-02T01:01:33;13.57;;;7.15;;
83634;SDS011;73596;49.482;11.238;2024-03-02T01:03:59;10.68;;;5.78;;
83634;SDS011;73596;49.482;11.238;2024-03-02T01:06:24;14.27;;;6.50;;
83634;SDS011;73596;49.482;11.238;2024-03-02T01:08:49;13.27;;;6.50;;
83634;SDS011;73596;49.482;11.238;2024-03-02T01:11:16;10.75;;;5.70;;
83634;SDS011;73596;49.482;11.238;2024-03-02T01:13:41;11.57;;;5.22;;
83634;SDS011;73596;49.482;11.238;2024-03-02T01:16:07;14.20;;;7.00;;
83634;SDS011;73596;49.482;11.238;2024-03-02T01:18:32;12.67;;;5.93;;
83634;SDS011;73596;49.482;11.238;2024-03-02T01:20:57;11.13;;;5.00;;
83634;SDS011;73596;49.482;11.238;2024-03-02T01:23:23;10.88;;;4.65;;
83634;SDS011;73596;49.482;11.238;2024-03-02T01:25:49;12.43;;;4.90;;
83634;SDS011;73596;49.482;11.238;2024-03-02T01:28:15;13.27;;;5.90;;
83634;SDS011;73596;49.482;11.238;2024-03-02T01:30:41;13.85;;;6.07;;
83634;SDS011;73596;49.482;11.238;2024-03-02T01:33:06;14.77;;;8.07;;
83634;SDS011;73596;49.482;11.238;2024-03-02T01:35:32;16.43;;;7.30;;
83634;SDS011;73596;49.482;11.238;2024-03-02T01:37:57;11.98;;;6.30;;
83634;SDS011;73596;49.482;11.238;2024-03-02T01:40:23;13.03;;;6.60;;
83634;SDS011;73596;49.482;11.238;2024-03-02T01:42:52;16.88;;;8.90;;
83634;SDS011;73596;49.482;11.238;2024-03-02T01:45:19;14.88;;;8.00;;
83634;SDS011;73596;49.482;11.238;2024-03-02T01:47:44;16.70;;;7.87;;
83634;SDS011;73596;49.482;11.238;2024-03-02T01:50:10;11.60;;;5.93;;
83634;SDS011;73596;49.482;11.238;2024-03-02T01:52:36;16.63;;;6.82;;
83634;SDS011;73596;49.482;11.238;2024-03-02T01:55:02;13.52;;;6.85;;
83634;SDS011;73596;49.482;11.238;2024-03-02T01:57:28;12.32;;;5.65;;
83634;SDS011;73596;49.482;11.238;2024-03-02T01:59:54;9.07;;;5.10;;
83634;SDS011;73596;49.482;11.238;2024-03-02T02:02:20;10.48;;;4.82;;
83634;SDS011;73596;49.482;11.238;2024-03-02T02:04:45;8.52;;;4.40;;
83634;SDS011;73596;49.482;11.238;2024-03-02T02:07:11;10.33;;;5.10;;
83634;SDS011;73596;49.482;11.238;2024-03-02T02:09:36;10.27;;;4.32;;
83634;SDS011;73596;49.482;11.238;2024-03-02T02:12:01;9.37;;;4.23;;
83634;SDS011;73596;49.482;11.238;2024-03-02T02:14:27;10.30;;;4.22;;
83634;SDS011;73596;49.482;11.238;2024-03-02T02:16:53;8.63;;;4.75;;
83634;SDS011;73596;49.482;11.238;2024-03-02T02:19:18;6.10;;;3.87;;
83634;SDS011;73596;49.482;11.238;2024-03-02T02:21:44;10.87;;;4.43;;
83634;SDS011;73596;49.482;11.238;2024-03-02T02:24:09;14.53;;;6.37;;
83634;SDS011;73596;49.482;11.238;2024-03-02T02:26:34;13.70;;;6.43;;
83634;SDS011;73596;49.482;11.238;2024-03-02T02:29:00;15.50;;;7.30;;
83634;SDS011;73596;49.482;11.238;2024-03-02T02:31:25;11.33;;;5.37;;
83634;SDS011;73596;49.482;11.238;2024-03-02T02:33:50;10.97;;;4.80;;
83634;SDS011;73596;49.482;11.238;2024-03-02T02:36:16;12.97;;;7.63;;
83634;SDS011;73596;49.482;11.238;2024-03-02T02:38:43;14.07;;;7.18;;
83634;SDS011;73596;49.482;11.238;2024-03-02T02:41:11;18.08;;;7.47;;
83634;SDS011;73596;49.482;11.238;2024-03-02T02:43:37;13.88;;;6.70;;
83634;SDS011;73596;49.482;11.238;2024-03-02T02:46:02;15.90;;;7.23;;
83634;SDS011;73596;49.482;11.238;2024-03-02T02:48:27;11.82;;;5.78;;
83634;SDS011;73596;49.482;11.238;2024-03-02T02:50:52;11.50;;;6.23;;
83634;SDS011;73596;49.482;11.238;2024-03-02T02:53:18;6.90;;;4.47;;
83634;SDS011;73596;49.482;11.238;2024-03-02T02:55:43;8.50;;;4.30;;
83634;SDS011;73596;49.482;11.238;2024-03-02T02:58:12;9.93;;;4.17;;
83634;SDS011;73596;49.482;11.238;2024-03-02T03:00:37;9.05;;;4.35;;
83634;SDS011;73596;49.482;11.238;2024-03-02T03:03:03;12.95;;;5.28;;
83634;SDS011;73596;49.482;11.238;2024-03-02T03:05:29;14.35;;;6.75;;
83634;SDS011;73596;49.482;11.238;2024-03-02T03:07:54;13.60;;;6.50;;
83634;SDS011;73596;49.482;11.238;2024-03-02T03:10:19;15.37;;;6.07;;
83634;SDS011;73596;49.482;11.238;2024-03-02T03:12:47;13.68;;;6.78;;
83634;SDS011;73596;49.482;11.238;2024-03-02T03:15:12;15.70;;;6.30;;
83634;SDS011;73596;49.482;11.238;2024-03-02T03:17:37;15.57;;;7.78;;
83634;SDS011;73596;49.482;11.238;2024-03-02T03:20:03;10.90;;;6.20;;
83634;SDS011;73596;49.482;11.238;2024-03-02T03:22:29;10.65;;;5.68;;
83634;SDS011;73596;49.482;11.238;2024-03-02T03:24:55;8.85;;;5.15;;
83634;SDS011;73596;49.482;11.238;2024-03-02T03:27:20;12.67;;;6.30;;
83634;SDS011;73596;49.482;11.238;2024-03-02T03:29:46;10.83;;;5.03;;
83634;SDS011;73596;49.482;11.238;2024-03-02T03:32:11;9.38;;;4.35;;
83634;SDS011;73596;49.482;11.238;2024-03-02T03:34:37;9.20;;;4.97;;
83634;SDS011;73596;49.482;11.238;2024-03-02T03:37:02;10.07;;;5.20;;
83634;SDS011;73596;49.482;11.238;2024-03-02T03:39:28;10.90;;;5.53;;
83634;SDS011;73596;49.482;11.238;2024-03-02T03:41:53;9.68;;;5.05;;
83634;SDS011;73596;49.482;11.238;2024-03-02T03:44:19;10.63;;;5.38;;
83634;SDS011;73596;49.482;11.238;2024-03-02T03:46:44;9.87;;;4.93;;
83634;SDS011;73596;49.482;11.238;2024-03-02T03:49:09;9.47;;;5.03;;
83634;SDS011;73596;49.482;11.238;2024-03-02T03:51:34;6.87;;;4.03;;
83634;SDS011;73596;49.482;11.238;2024-03-02T03:54:00;11.82;;;4.47;;
83634;SDS011;73596;49.482;11.238;2024-03-02T03:56:26;10.95;;;5.53;;
83634;SDS011;73596;49.482;11.238;2024-03-02T03:58:51;9.77;;;4.40;;
83634;SDS011;73596;49.482;11.238;2024-03-02T04:01:17;9.63;;;4.75;;
83634;SDS011;73596;49.482;11.238;2024-03-02T04:03:42;10.07;;;4.90;;
83634;SDS011;73596;49.482;11.238;2024-03-02T04:06:07;8.93;;;4.40;;
83634;SDS011;73596;49.482;11.238;2024-03-02T04:08:33;8.10;;;4.03;;
83634;SDS011;73596;49.482;11.238;2024-03-02T04:10:58;6.77;;;4.20;;
83634;SDS011;73596;49.482;11.238;2024-03-02T04:13:23;9.73;;;4.80;;
83634;SDS011;73596;49.482;11.238;2024-03-02T04:15:48;7.70;;;3.97;;
83634;SDS011;73596;49.482;11.238;2024-03-02T04:18:14;11.53;;;4.40;;
83634;SDS011;73596;49.482;11.238;2024-03-02T04:20:39;7.47;;;4.97;;
83634;SDS011;73596;49.482;11.238;2024-03-02T04:23:04;8.07;;;3.87;;
83634;SDS011;73596;49.482;11.238;2024-03-02T04:25:30;6.32;;;3.22;;
83634;SDS011;73596;49.482;11.238;2024-03-02T04:27:55;8.00;;;4.37;;
83634;SDS011;73596;49.482;11.238;2024-03-02T04:30:20;9.13;;;3.70;;
83634;SDS011;73596;49.482;11.238;2024-03-02T04:32:45;18.27;;;7.13;;
83634;SDS011;73596;49.482;11.238;2024-03-02T04:35:11;12.38;;;5.28;;
83634;SDS011;73596;49.482;11.238;2024-03-02T04:37:40;13.30;;;5.82;;
83634;SDS011;73596;49.482;11.238;2024-03-02T04:40:05;17.70;;;8.00;;
83634;SDS011;73596;49.482;11.238;2024-03-02T04:42:34;25.65;;;8.90;;
83634;SDS011;73596;49.482;11.238;2024-03-02T04:45:00;22.35;;;9.32;;
83634;SDS011;73596;49.482;11.238;2024-03-02T04:47:25;18.25;;;7.60;;
83634;SDS011;73596;49.482;11.238;2024-03-02T04:49:50;14.47;;;7.20;;
83634;SDS011;73596;49.482;11.238;2024-03-02T04:52:16;11.77;;;6.07;;
83634;SDS011;73596;49.482;11.238;2024-03-02T04:54:42;15.30;;;5.88;;
83634;SDS011;73596;49.482;11.238;2024-03-02T04:57:26;8.98;;;4.78;;
83634;SDS011;73596;49.482;11.238;2024-03-02T04:59:51;10.10;;;4.07;;
83634;SDS011;73596;49.482;11.238;2024-03-02T05:02:16;12.00;;;4.63;;
83634;SDS011;73596;49.482;11.238;2024-03-02T05:04:41;8.60;;;5.17;;
83634;SDS011;73596;49.482;11.238;2024-03-02T05:07:07;8.60;;;4.20;;
83634;SDS011;73596;49.482;11.238;2024-03-02T05:09:32;6.70;;;3.85;;
83634;SDS011;73596;49.482;11.238;2024-03-02T05:11:57;9.83;;;4.43;;
83634;SDS011;73596;49.482;11.238;2024-03-02T05:14:41;6.68;;;3.83;;
83634;SDS011;73596;49.482;11.238;2024-03-02T05:17:06;8.40;;;3.57;;
83634;SDS011;73596;49.482;11.238;2024-03-02T05:19:31;11.13;;;4.07;;
83634;SDS011;73596;49.482;11.238;2024-03-02T05:21:57;10.07;;;4.37;;
83634;SDS011;73596;49.482;11.238;2024-03-02T05:24:22;11.93;;;4.27;;
83634;SDS011;73596;49.482;11.238;2024-03-02T05:26:47;8.23;;;4.00;;
83634;SDS011;73596;49.482;11.238;2024-03-02T05:29:12;12.03;;;5.27;;
83634;SDS011;73596;49.482;11.238;2024-03-02T05:31:38;14.67;;;6.50;;
83634;SDS011;73596;49.482;11.238;2024-03-02T05:34:03;16.50;;;7.23;;
83634;SDS011;73596;49.482;11.238;2024-03-02T05:36:28;14.17;;;6.73;;
83634;SDS011;73596;49.482;11.238;2024-03-02T05:38:54;17.63;;;6.88;;
83634;SDS011;73596;49.482;11.238;2024-03-02T05:41:19;14.02;;;5.68;;
83634;SDS011;73596;49.482;11.238;2024-03-02T05:43:44;10.90;;;5.07;;
83634;SDS011;73596;49.482;11.238;2024-03-02T05:46:10;9.37;;;4.03;;
83634;SDS011;73596;49.482;11.238;2024-03-02T05:48:35;8.90;;;4.67;;
83634;SDS011;73596;49.482;11.238;2024-03-02T05:51:00;9.40;;;5.07;;
83634;SDS011;73596;49.482;11.238;2024-03-02T05:53:25;12.47;;;4.77;;
83634;SDS011;73596;49.482;11.238;2024-03-02T05:55:51;12.47;;;5.87;;
83634;SDS011;73596;49.482;11.238;2024-03-02T05:58:20;7.72;;;4.38;;
83634;SDS011;73596;49.482;11.238;2024-03-02T06:00:49;10.77;;;5.07;;
83634;SDS011;73596;49.482;11.238;2024-03-02T06:03:14;8.53;;;4.70;;
83634;SDS011;73596;49.482;11.238;2024-03-02T06:05:39;10.67;;;5.37;;
83634;SDS011;73596;49.482;11.238;2024-03-02T06:08:05;11.18;;;5.97;;
83634;SDS011;73596;49.482;11.238;2024-03-02T06:10:32;11.40;;;5.88;;
83634;SDS011;73596;49.482;11.238;2024-03-02T06:12:57;10.40;;;5.20;;
83634;SDS011;73596;49.482;11.238;2024-03-02T06:15:24;14.35;;;6.22;;
83634;SDS011;73596;49.482;11.238;2024-03-02T06:17:49;13.90;;;6.30;;
83634;SDS011;73596;49.482;11.238;2024-03-02T06:20:15;14.07;;;6.27;;
83634;SDS011;73596;49.482;11.238;2024-03-02T06:22:40;13.63;;;6.40;;
83634;SDS011;73596;49.482;11.238;2024-03-02T06:25:05;10.93;;;5.70;;
83634;SDS011;73596;49.482;11.238;2024-03-02T06:27:31;11.50;;;4.88;;
83634;SDS011;73596;49.482;11.238;2024-03-02T06:29:56;10.63;;;4.60;;
83634;SDS011;73596;49.482;11.238;2024-03-02T06:32:21;9.20;;;4.87;;
83634;SDS011;73596;49.482;11.238;2024-03-02T06:34:48;8.43;;;4.13;;
83634;SDS011;73596;49.482;11.238;2024-03-02T06:37:13;10.70;;;4.60;;
83634;SDS011;73596;49.482;11.238;2024-03-02T06:39:38;8.03;;;3.20;;
83634;SDS011;73596;49.482;11.238;2024-03-02T06:42:04;9.13;;;4.50;;
83634;SDS011;73596;49.482;11.238;2024-03-02T06:44:29;9.52;;;3.92;;
83634;SDS011;73596;49.482;11.238;2024-03-02T06:46:54;8.37;;;4.43;;
83634;SDS011;73596;49.482;11.238;2024-03-02T06:49:19;14.70;;;5.80;;
83634;SDS011;73596;49.482;11.238;2024-03-02T06:51:45;11.47;;;4.17;;
83634;SDS011;73596;49.482;11.238;2024-03-02T06:54:10;12.13;;;4.80;;
83634;SDS011;73596;49.482;11.238;2024-03-02T06:56:35;8.18;;;3.65;;
83634;SDS011;73596;49.482;11.238;2024-03-02T06:59:00;14.40;;;5.67;;
83634;SDS011;73596;49.482;11.238;2024-03-02T07:01:26;11.47;;;5.30;;
83634;SDS011;73596;49.482;11.238;2024-03-02T07:03:51;13.10;;;5.23;;
83634;SDS011;73596;49.482;11.238;2024-03-02T07:06:17;12.43;;;6.13;;
83634;SDS011;73596;49.482;11.238;2024-03-02T07:08:42;11.10;;;4.95;;
83634;SDS011;73596;49.482;11.238;2024-03-02T07:11:07;9.80;;;4.40;;
83634;SDS011;73596;49.482;11.238;2024-03-02T07:13:32;10.50;;;5.17;;
83634;SDS011;73596;49.482;11.238;2024-03-02T07:15:58;9.53;;;4.57;;
83634;SDS011;73596;49.482;11.238;2024-03-02T07:18:29;10.00;;;3.78;;
83634;SDS011;73596;49.482;11.238;2024-03-02T07:20:55;8.77;;;3.40;;
83634;SDS011;73596;49.482;11.238;2024-03-02T07:23:23;5.60;;;3.25;;
83634;SDS011;73596;49.482;11.238;2024-03-02T07:25:52;8.05;;;3.97;;
83634;SDS011;73596;49.482;11.238;2024-03-02T07:28:19;10.70;;;4.88;;
83634;SDS011;73596;49.482;11.238;2024-03-02T07:30:45;7.30;;;3.45;;
83634;SDS011;73596;49.482;11.238;2024-03-02T07:33:10;8.70;;;4.17;;
83634;SDS011;73596;49.482;11.238;2024-03-02T07:35:35;11.07;;;5.25;;
83634;SDS011;73596;49.482;11.238;2024-03-02T07:38:01;14.13;;;5.80;;
83634;SDS011;73596;49.482;11.238;2024-03-02T07:40:26;11.13;;;4.85;;
83634;SDS011;73596;49.482;11.238;2024-03-02T07:42:52;11.30;;;4.50;;
83634;SDS011;73596;49.482;11.238;2024-03-02T07:45:17;10.45;;;4.72;;
83634;SDS011;73596;49.482;11.238;2024-03-02T07:47:42;17.97;;;6.93;;
83634;SDS011;73596;49.482;11.238;2024-03-02T07:50:08;20.10;;;7.40;;
83634;SDS011;73596;49.482;11.238;2024-03-02T07:52:34;11.68;;;5.03;;
83634;SDS011;73596;49.482;11.238;2024-03-02T07:54:59;16.30;;;6.63;;
83634;SDS011;73596;49.482;11.238;2024-03-02T07:57:24;17.17;;;7.70;;
83634;SDS011;73596;49.482;11.238;2024-03-02T07:59:50;15.68;;;7.53;;
83634;SDS011;73596;49.482;11.238;2024-03-02T08:02:15;15.25;;;6.65;;
83634;SDS011;73596;49.482;11.238;2024-03-02T08:04:41;16.30;;;7.82;;
83634;SDS011;73596;49.482;11.238;2024-03-02T08:07:06;17.15;;;7.25;;
83634;SDS011;73596;49.482;11.238;2024-03-02T08:09:32;12.18;;;5.70;;
83634;SDS011;73596;49.482;11.238;2024-03-02T08:11:57;12.27;;;6.80;;
83634;SDS011;73596;49.482;11.238;2024-03-02T08:14:23;10.93;;;5.30;;
83634;SDS011;73596;49.482;11.238;2024-03-02T08:16:48;15.90;;;7.40;;
83634;SDS011;73596;49.482;11.238;2024-03-02T08:19:14;11.47;;;5.57;;
83634;SDS011;73596;49.482;11.238;2024-03-02T08:21:39;14.48;;;6.00;;
83634;SDS011;73596;49.482;11.238;2024-03-02T08:24:05;12.70;;;6.45;;
83634;SDS011;73596;49.482;11.238;2024-03-02T08:26:30;10.50;;;4.93;;
83634;SDS011;73596;49.482;11.238;2024-03-02T08:28:57;12.02;;;5.10;;
83634;SDS011;73596;49.482;11.238;2024-03-02T08:31:23;17.10;;;8.25;;
83634;SDS011;73596;49.482;11.238;2024-03-02T08:33:48;11.63;;;6.27;;
83634;SDS011;73596;49.482;11.238;2024-03-02T08:36:13;15.47;;;6.53;;
83634;SDS011;73596;49.482;11.238;2024-03-02T08:38:38;14.23;;;5.88;;
83634;SDS011;73596;49.482;11.238;2024-03-02T08:41:04;15.68;;;6.93;;
83634;SDS011;73596;49.482;11.238;2024-03-02T08:43:30;9.30;;;5.10;;
83634;SDS011;73596;49.482;11.238;2024-03-02T08:45:55;15.50;;;6.82;;
83634;SDS011;73596;49.482;11.238;2024-03-02T08:48:20;11.23;;;5.43;;
83634;SDS011;73596;49.482;11.238;2024-03-02T08:50:46;9.70;;;5.00;;
83634;SDS011;73596;49.482;11.238;2024-03-02T08:53:11;15.45;;;6.53;;
83634;SDS011;73596;49.482;11.238;2024-03-02T08:55:37;13.68;;;6.63;;
83634;SDS011;73596;49.482;11.238;2024-03-02T08:58:02;14.30;;;6.93;;
83634;SDS011;73596;49.482;11.238;2024-03-02T09:00:28;19.42;;;8.85;;
83634;SDS011;73596;49.482;11.238;2024-03-02T09:02:53;12.75;;;6.30;;
83634;SDS011;73596;49.482;11.238;2024-03-02T09:05:19;17.58;;;8.05;;
83634;SDS011;73596;49.482;11.238;2024-03-02T09:07:44;11.93;;;5.93;;
83634;SDS011;73596;49.482;11.238;2024-03-02T09:10:09;14.50;;;7.00;;
83634;SDS011;73596;49.482;11.238;2024-03-02T09:12:35;17.80;;;8.07;;
83634;SDS011;73596;49.482;11.238;2024-03-02T09:15:01;14.02;;;7.10;;
83634;SDS011;73596;49.482;11.238;2024-03-02T09:17:28;12.88;;;6.05;;
83634;SDS011;73596;49.482;11.238;2024-03-02T09:19:53;14.82;;;7.80;;
83634;SDS011;73596;49.482;11.238;2024-03-02T09:22:19;14.30;;;7.00;;
83634;SDS011;73596;49.482;11.238;2024-03-02T09:24:44;11.93;;;6.05;;
83634;SDS011;73596;49.482;11.238;2024-03-02T09:27:10;13.53;;;6.63;;
83634;SDS011;73596;49.482;11.238;2024-03-02T09:29:36;16.58;;;7.22;;
83634;SDS011;73596;49.482;11.238;2024-03-02T09:32:01;11.20;;;5.68;;
83634;SDS011;73596;49.482;11.238;2024-03-02T09:34:27;14.32;;;7.30;;
83634;SDS011;73596;49.482;11.238;2024-03-02T09:36:52;12.30;;;6.60;;
83634;SDS011;73596;49.482;11.238;2024-03-02T09:39:18;13.68;;;5.82;;
83634;SDS011;73596;49.482;11.238;2024-03-02T09:41:43;12.48;;;5.45;;
83634;SDS011;73596;49.482;11.238;2024-03-02T09:44:09;11.70;;;6.45;;
83634;SDS011;73596;49.482;11.238;2024-03-02T09:46:34;13.73;;;6.32;;
83634;SDS011;73596;49.482;11.238;2024-03-02T09:49:01;12.40;;;6.47;;
83634;SDS011;73596;49.482;11.238;2024-03-02T09:51:26;10.93;;;6.13;;
83634;SDS011;73596;49.482;11.238;2024-03-02T09:53:52;12.38;;;6.30;;
83634;SDS011;73596;49.482;11.238;2024-03-02T09:56:20;10.27;;;5.57;;
83634;SDS011;73596;49.482;11.238;2024-03-02T09:58:46;10.98;;;5.90;;
83634;SDS011;73596;49.482;11.238;2024-03-02T10:01:12;13.20;;;6.55;;
83634;SDS011;73596;49.482;11.238;2024-03-02T10:03:38;9.93;;;5.40;;
83634;SDS011;73596;49.482;11.238;2024-03-02T10:06:23;13.10;;;7.15;;
83634;SDS011;73596;49.482;11.238;2024-03-02T10:08:49;11.45;;;6.45;;
83634;SDS011;73596;49.482;11.238;2024-03-02T10:19:21;13.82;;;6.93;;
83634;SDS011;73596;49.482;11.238;2024-03-02T10:21:48;15.02;;;6.72;;
83634;SDS011;73596;49.482;11.238;2024-03-02T10:24:17;11.45;;;6.75;;
83634;SDS011;73596;49.482;11.238;2024-03-02T10:26:43;15.40;;;7.47;;
83634;SDS011;73596;49.482;11.238;2024-03-02T10:29:09;12.38;;;6.28;;
83634;SDS011;73596;49.482;11.238;2024-03-02T10:31:36;12.35;;;6.07;;
83634;SDS011;73596;49.482;11.238;2024-03-02T10:34:03;15.25;;;7.40;;
83634;SDS011;73596;49.482;11.238;2024-03-02T10:36:28;11.95;;;6.40;;
83634;SDS011;73596;49.482;11.238;2024-03-02T10:38:55;11.02;;;5.97;;
83634;SDS011;73596;49.482;11.238;2024-03-02T10:41:25;10.88;;;5.50;;
83634;SDS011;73596;49.482;11.238;2024-03-02T10:43:54;11.43;;;6.13;;
83634;SDS011;73596;49.482;11.238;2024-03-02T10:46:27;14.23;;;6.97;;
83634;SDS011;73596;49.482;11.238;2024-03-02T10:48:54;11.40;;;6.35;;
83634;SDS011;73596;49.482;11.238;2024-03-02T10:51:20;11.15;;;5.43;;
83634;SDS011;73596;49.482;11.238;2024-03-02T10:53:45;11.00;;;5.63;;
83634;SDS011;73596;49.482;11.238;2024-03-02T10:56:11;10.70;;;6.63;;
83634;SDS011;73596;49.482;11.238;2024-03-02T11:01:15;8.75;;;5.00;;
83634;SDS011;73596;49.482;11.238;2024-03-02T11:03:42;10.77;;;6.30;;
83634;SDS011;73596;49.482;11.238;2024-03-02T11:06:08;9.02;;;5.35;;
83634;SDS011;73596;49.482;11.238;2024-03-02T11:08:34;10.35;;;5.78;;
83634;SDS011;73596;49.482;11.238;2024-03-02T11:11:06;10.95;;;6.10;;
83634;SDS011;73596;49.482;11.238;2024-03-02T11:13:35;10.02;;;5.45;;
83634;SDS011;73596;49.482;11.238;2024-03-02T11:16:04;10.98;;;5.85;;
83634;SDS011;73596;49.482;11.238;2024-03-02T11:18:33;12.40;;;5.65;;
83634;SDS011;73596;49.482;11.238;2024-03-02T11:20:59;11.55;;;6.38;;
83634;SDS011;73596;49.482;11.238;2024-03-02T11:23:31;11.38;;;5.85;;
83634;SDS011;73596;49.482;11.238;2024-03-02T11:26:16;11.05;;;5.80;;
83634;SDS011;73596;49.482;11.238;2024-03-02T11:28:46;13.57;;;7.05;;
83634;SDS011;73596;49.482;11.238;2024-03-02T11:31:11;10.20;;;5.68;;
83634;SDS011;73596;49.482;11.238;2024-03-02T11:33:36;14.90;;;7.25;;
83634;SDS011;73596;49.482;11.238;2024-03-02T11:36:02;11.80;;;6.15;;
83634;SDS011;73596;49.482;11.238;2024-03-02T11:38:29;15.70;;;7.55;;
83634;SDS011;73596;49.482;11.238;2024-03-02T11:40:55;14.48;;;6.97;;
83634;SDS011;73596;49.482;11.238;2024-03-02T11:43:21;16.35;;;7.30;;
83634;SDS011;73596;49.482;11.238;2024-03-02T11:45:46;13.47;;;7.57;;
83634;SDS011;73596;49.482;11.238;2024-03-02T11:48:13;14.77;;;7.97;;
83634;SDS011;73596;49.482;11.238;2024-03-02T11:50:40;12.82;;;7.38;;
83634;SDS011;73596;49.482;11.238;2024-03-02T11:53:07;10.93;;;6.32;;
83634;SDS011;73596;49.482;11.238;2024-03-02T11:55:37;17.15;;;6.85;;
83634;SDS011;73596;49.482;11.238;2024-03-02T12:00:29;13.82;;;6.68;;
83634;SDS011;73596;49.482;11.238;2024-03-02T12:03:02;11.20;;;5.50;;
83634;SDS011;73596;49.482;11.238;2024-03-02T12:05:29;12.77;;;7.10;;
83634;SDS011;73596;49.482;11.238;2024-03-02T12:07:59;14.88;;;7.07;;
83634;SDS011;73596;49.482;11.238;2024-03-02T12:13:00;15.18;;;7.47;;
83634;SDS011;73596;49.482;11.238;2024-03-02T12:15:28;13.38;;;7.15;;
83634;SDS011;73596;49.482;11.238;2024-03-02T12:17:56;14.18;;;7.22;;
83634;SDS011;73596;49.482;11.238;2024-03-02T12:20:23;15.70;;;7.70;;
83634;SDS011;73596;49.482;11.238;2024-03-02T12:22:52;17.25;;;7.97;;
83634;SDS011;73596;49.482;11.238;2024-03-02T12:25:19;14.48;;;7.80;;
83634;SDS011;73596;49.482;11.238;2024-03-02T12:27:52;13.90;;;7.45;;
83634;SDS011;73596;49.482;11.238;2024-03-02T12:30:19;13.82;;;8.07;;
83634;SDS011;73596;49.482;11.238;2024-03-02T12:32:45;14.30;;;8.15;;
83634;SDS011;73596;49.482;11.238;2024-03-02T12:35:11;16.98;;;7.60;;
83634;SDS011;73596;49.482;11.238;2024-03-02T12:37:49;14.48;;;7.45;;
83634;SDS011;73596;49.482;11.238;2024-03-02T12:40:16;15.02;;;7.43;;
83634;SDS011;73596;49.482;11.238;2024-03-02T12:42:43;12.98;;;6.57;;
83634;SDS011;73596;49.482;11.238;2024-03-02T12:45:10;16.40;;;7.30;;
83634;SDS011;73596;49.482;11.238;2024-03-02T12:47:36;14.75;;;7.05;;
83634;SDS011;73596;49.482;11.238;2024-03-02T12:50:03;11.60;;;6.45;;
83634;SDS011;73596;49.482;11.238;2024-03-02T12:52:29;16.02;;;7.60;;
83634;SDS011;73596;49.482;11.238;2024-03-02T12:54:55;14.35;;;5.53;;
83634;SDS011;73596;49.482;11.238;2024-03-02T12:57:27;18.25;;;8.45;;
83634;SDS011;73596;49.482;11.238;2024-03-02T12:59:57;15.15;;;7.32;;
83634;SDS011;73596;49.482;11.238;2024-03-02T13:02:26;14.88;;;7.32;;
83634;SDS011;73596;49.482;11.238;2024-03-02T13:04:53;14.18;;;6.90;;
83634;SDS011;73596;49.482;11.238;2024-03-02T13:07:24;14.77;;;6.35;;
83634;SDS011;73596;49.482;11.238;2024-03-02T13:09:51;13.13;;;6.28;;
83634;SDS011;73596;49.482;11.238;2024-03-02T13:12:17;13.05;;;6.93;;
83634;SDS011;73596;49.482;11.238;2024-03-02T13:14:43;11.95;;;5.72;;
83634;SDS011;73596;49.482;11.238;2024-03-02T13:17:09;14.80;;;7.63;;
83634;SDS011;73596;49.482;11.238;2024-03-02T13:19:35;14.43;;;7.00;;
83634;SDS011;73596;49.482;11.238;2024-03-02T13:22:00;12.65;;;6.60;;
83634;SDS011;73596;49.482;11.238;2024-03-02T13:24:28;16.55;;;7.90;;
83634;SDS011;73596;49.482;11.238;2024-03-02T13:26:54;13.00;;;6.03;;
83634;SDS011;73596;49.482;11.238;2024-03-02T13:29:22;12.27;;;5.80;;
83634;SDS011;73596;49.482;11.238;2024-03-02T13:31:47;15.50;;;7.40;;
83634;SDS011;73596;49.482;11.238;2024-03-02T13:34:13;13.95;;;6.03;;
83634;SDS011;73596;49.482;11.238;2024-03-02T13:36:38;15.70;;;7.10;;
83634;SDS011;73596;49.482;11.238;2024-03-02T13:39:04;15.93;;;7.43;;
83634;SDS011;73596;49.482;11.238;2024-03-02T13:41:35;12.68;;;6.53;;
83634;SDS011;73596;49.482;11.238;2024-03-02T13:44:01;13.75;;;6.45;;
83634;SDS011;73596;49.482;11.238;2024-03-02T13:46:27;14.70;;;6.60;;
83634;SDS011;73596;49.482;11.238;2024-03-02T13:48:52;12.32;;;5.70;;
83634;SDS011;73596;49.482;11.238;2024-03-02T13:51:19;14.23;;;6.75;;
83634;SDS011;73596;49.482;11.238;2024-03-02T13:53:44;14.90;;;7.53;;
83634;SDS011;73596;49.482;11.238;2024-03-02T13:56:09;12.80;;;6.37;;
83634;SDS011;73596;49.482;11.238;2024-03-02T13:58:34;15.77;;;7.40;;
83634;SDS011;73596;49.482;11.238;2024-03-02T14:01:00;12.67;;;6.53;;
83634;SDS011;73596;49.482;11.238;2024-03-02T14:03:26;15.35;;;8.18;;
83634;SDS011;73596;49.482;11.238;2024-03-02T14:05:52;9.43;;;5.15;;
83634;SDS011;73596;49.482;11.238;2024-03-02T14:08:18;16.95;;;7.63;;
83634;SDS011;73596;49.482;11.238;2024-03-02T14:10:43;12.63;;;5.75;;
83634;SDS011;73596;49.482;11.238;2024-03-02T14:13:09;12.20;;;5.63;;
83634;SDS011;73596;49.482;11.238;2024-03-02T14:15:34;13.73;;;6.80;;
83634;SDS011;73596;49.482;11.238;2024-03-02T14:18:03;15.73;;;7.20;;
83634;SDS011;73596;49.482;11.238;2024-03-02T14:20:29;16.42;;;6.90;;
83634;SDS011;73596;49.482;11.238;2024-03-02T14:22:54;14.30;;;7.70;;
83634;SDS011;73596;49.482;11.238;2024-03-02T14:25:19;18.67;;;8.23;;
83634;SDS011;73596;49.482;11.238;2024-03-02T14:27:45;13.43;;;7.27;;
83634;SDS011;73596;49.482;11.238;2024-03-02T14:30:11;18.00;;;7.50;;
83634;SDS011;73596;49.482;11.238;2024-03-02T14:32:37;17.98;;;8.25;;